Time;durP1;ratioP1;P1;durP2;ratioP2;P2;SDS_P1;SDS_P2;PMS_P1;PMS_P2;Temp;Humidity;BMP_temperature;BMP_pressure;BME280_temperature;BME280_humidity;BME280_pressure;Samples;Min_cycle;Max_cycle;Signal;HPM_P1;HPM_P2
2022/08/14 00:02:04;;;;;;;4.32;3.33;;;22.40;91.30;;;;;;5043836;28;20041;-77
2022/08/14 00:04:32;;;;;;;6.32;3.50;;;22.30;91.30;;;;;;5061597;28;20037;-75
2022/08/14 00:06:57;;;;;;;4.78;3.53;;;22.30;91.40;;;;;;5063842;28;20033;-74
2022/08/14 00:09:23;;;;;;;5.43;3.42;;;22.20;91.40;;;;;;5064325;28;20049;-76
2022/08/14 00:11:49;;;;;;;6.80;3.45;;;22.20;91.50;;;;;;5063855;28;20116;-76
2022/08/14 00:14:15;;;;;;;5.50;3.65;;;22.20;91.60;;;;;;5043406;28;20440;-75
2022/08/14 00:16:41;;;;;;;7.03;3.38;;;22.10;91.70;;;;;;5043466;28;20071;-76
2022/08/14 00:19:07;;;;;;;5.00;3.80;;;22.10;91.80;;;;;;5053457;28;20049;-76
2022/08/14 00:21:33;;;;;;;4.70;3.63;;;22.00;91.80;;;;;;5026944;28;20130;-76
2022/08/14 00:23:59;;;;;;;6.78;3.35;;;22.10;91.90;;;;;;5062882;28;20091;-76
2022/08/14 00:26:24;;;;;;;4.80;4.15;;;22.10;92.00;;;;;;5046544;28;20528;-76
2022/08/14 00:28:52;;;;;;;5.95;3.88;;;22.10;92.00;;;;;;5045925;28;20071;-76
2022/08/14 00:31:17;;;;;;;6.15;4.47;;;22.00;92.10;;;;;;5060822;28;20077;-75
2022/08/14 00:33:43;;;;;;;3.70;3.40;;;22.00;92.20;;;;;;5060677;28;20146;-76
2022/08/14 00:36:09;;;;;;;3.95;3.60;;;22.00;92.20;;;;;;5046120;28;20085;-76
2022/08/14 00:38:36;;;;;;;6.55;4.07;;;22.00;92.30;;;;;;5064142;28;20505;-76
2022/08/14 00:41:04;;;;;;;8.13;4.45;;;21.90;92.40;;;;;;5061862;28;20036;-75
2022/08/14 00:43:30;;;;;;;6.43;3.67;;;21.90;92.50;;;;;;5042854;28;20484;-75
2022/08/14 00:45:56;;;;;;;5.35;4.25;;;21.80;92.60;;;;;;5069022;28;20044;-74
2022/08/14 00:48:21;;;;;;;5.40;4.90;;;21.80;92.70;;;;;;5048492;28;20105;-75
2022/08/14 00:50:47;;;;;;;6.18;3.92;;;21.90;92.80;;;;;;5063966;28;20047;-70
2022/08/14 00:53:15;;;;;;;6.07;4.18;;;21.90;92.80;;;;;;5060615;28;20416;-75
2022/08/14 00:55:46;;;;;;;5.95;4.00;;;22.00;93.00;;;;;;5060823;28;20068;-76
2022/08/14 00:58:29;;;;;;;5.28;4.70;;;22.40;93.20;;;;;;5052169;28;20044;-73
2022/08/14 01:01:00;;;;;;;4.90;3.85;;;21.70;93.00;;;;;;5061840;28;20528;-75
2022/08/14 01:03:30;;;;;;;5.57;4.43;;;21.70;93.10;;;;;;5029329;28;20047;-76
2022/08/14 01:05:57;;;;;;;5.50;4.05;;;21.70;93.30;;;;;;5061487;28;20511;-76
2022/08/14 01:08:28;;;;;;;4.72;4.13;;;21.80;93.30;;;;;;5042431;28;20049;-75
2022/08/14 01:10:56;;;;;;;4.82;4.38;;;21.70;93.40;;;;;;5043900;28;20091;-76
2022/08/14 01:13:31;;;;;;;5.25;4.30;;;21.60;93.40;;;;;;5062939;28;20059;-76
2022/08/14 01:16:00;;;;;;;6.28;4.38;;;21.70;93.50;;;;;;5044292;28;20047;-76
2022/08/14 01:21:15;;;;;;;11.90;5.03;;;21.60;93.60;;;;;;5052057;28;20281;-76
2022/08/14 01:23:48;;;;;;;6.78;4.28;;;21.60;93.70;;;;;;5060072;28;20037;-75
2022/08/14 01:26:19;;;;;;;9.27;5.47;;;21.50;93.80;;;;;;5051818;28;20040;-71
2022/08/14 01:28:47;;;;;;;6.88;4.45;;;21.50;93.90;;;;;;5060108;28;20064;-71
2022/08/14 01:31:17;;;;;;;7.72;4.78;;;21.50;93.90;;;;;;5051938;28;20484;-71
2022/08/14 01:33:47;;;;;;;8.35;4.88;;;21.50;93.90;;;;;;5058916;28;20061;-70
2022/08/14 01:36:20;;;;;;;6.35;4.47;;;21.50;93.90;;;;;;5051968;28;20060;-72
2022/08/14 01:38:50;;;;;;;;;;;21.80;94.00;;;;;;5060333;28;20044;-72
2022/08/14 01:41:21;;;;;;;5.40;4.88;;;21.50;94.00;;;;;;5033761;28;19931;-71
2022/08/14 01:43:59;;;;;;;5.68;5.07;;;21.50;94.00;;;;;;5041545;28;20051;-72
2022/08/14 01:46:27;;;;;;;5.60;5.20;;;21.90;94.20;;;;;;5035416;28;20174;-71
2022/08/14 01:48:56;;;;;;;6.60;5.38;;;21.50;94.10;;;;;;5042665;28;20044;-71
2022/08/14 01:51:23;;;;;;;10.50;5.72;;;21.50;94.20;;;;;;5063284;28;20048;-72
2022/08/14 01:53:55;;;;;;;5.80;5.38;;;21.50;94.30;;;;;;5062122;28;20467;-71
2022/08/14 01:56:29;;;;;;;6.75;5.43;;;21.50;94.40;;;;;;5059648;28;20080;-72
2022/08/14 01:58:57;;;;;;;7.05;5.53;;;21.70;94.60;;;;;;5060875;28;20131;-72
2022/08/14 02:01:23;;;;;;;8.50;5.57;;;21.70;94.60;;;;;;5062568;28;20047;-73
2022/08/14 02:03:48;;;;;;;7.50;5.07;;;21.40;94.60;;;;;;5063094;28;20048;-77
2022/08/14 02:06:17;;;;;;;8.25;5.68;;;21.40;94.70;;;;;;5061741;28;20068;-73
2022/08/14 02:08:43;;;;;;;7.95;5.60;;;21.30;94.80;;;;;;5062827;28;20045;-73
2022/08/14 02:11:16;;;;;;;5.63;5.13;;;21.30;94.90;;;;;;5062158;28;20443;-77
2022/08/14 02:13:58;;;;;;;8.38;5.43;;;21.30;95.10;;;;;;5043908;28;20040;-74
2022/08/14 02:16:32;;;;;;;6.30;5.70;;;21.30;95.20;;;;;;5051869;28;20048;-76
2022/08/14 02:19:00;;;;;;;6.00;5.50;;;21.20;95.20;;;;;;5060438;28;20102;-75
2022/08/14 02:21:31;;;;;;;6.45;5.88;;;21.20;95.40;;;;;;5044715;28;20044;-75
2022/08/14 02:24:02;;;;;;;10.07;5.68;;;21.20;95.50;;;;;;5042742;28;20528;-74
2022/08/14 02:26:31;;;;;;;8.40;6.25;;;21.10;95.60;;;;;;5059149;28;20120;-74
2022/08/14 02:29:00;;;;;;;10.18;6.10;;;21.10;95.80;;;;;;5059244;28;20606;-76
2022/08/14 02:31:29;;;;;;;7.43;5.65;;;21.10;95.80;;;;;;5062541;28;20720;-74
2022/08/14 02:33:55;;;;;;;10.13;6.22;;;21.10;95.90;;;;;;5061775;28;20092;-77
2022/08/14 02:36:21;;;;;;;6.75;6.18;;;21.20;96.10;;;;;;5058632;28;20041;-75
2022/08/14 02:38:48;;;;;;;8.80;5.82;;;21.10;96.10;;;;;;5059720;28;20040;-74
2022/08/14 02:41:14;;;;;;;6.68;6.07;;;21.30;96.30;;;;;;5062559;28;20127;-76
2022/08/14 02:43:40;;;;;;;6.07;5.55;;;21.00;96.30;;;;;;5061456;28;20414;-75
2022/08/14 02:46:10;;;;;;;7.55;5.70;;;21.00;96.30;;;;;;5061053;28;20158;-74
2022/08/14 02:48:40;;;;;;;6.82;6.22;;;21.00;96.30;;;;;;5059023;28;20072;-76
2022/08/14 02:51:12;;;;;;;7.05;6.25;;;20.80;96.40;;;;;;5060384;28;20045;-76
2022/08/14 02:53:40;;;;;;;10.07;6.60;;;21.00;96.60;;;;;;5062153;28;20090;-75
2022/08/14 02:56:07;;;;;;;7.45;6.72;;;21.40;96.80;;;;;;5060532;28;20054;-72
2022/08/14 02:58:37;;;;;;;7.53;6.72;;;21.00;96.70;;;;;;5058175;28;20571;-76
2022/08/14 03:01:03;;;;;;;7.72;6.75;;;20.90;96.90;;;;;;5060636;28;20052;-74
2022/08/14 03:03:30;;;;;;;6.72;6.10;;;20.90;97.00;;;;;;5061917;28;20059;-76
2022/08/14 03:05:59;;;;;;;9.32;6.53;;;21.10;97.20;;;;;;5061368;28;20112;-76
2022/08/14 03:08:30;;;;;;;6.35;5.85;;;20.90;97.20;;;;;;5059078;28;20119;-75
2022/08/14 03:10:58;;;;;;;7.10;6.30;;;20.80;97.30;;;;;;5058674;28;20596;-74
2022/08/14 03:13:24;;;;;;;7.50;6.88;;;20.80;97.20;;;;;;5062220;28;20045;-76
2022/08/14 03:15:52;;;;;;;8.38;7.43;;;20.80;97.40;;;;;;5044473;28;20094;-77
2022/08/14 03:18:22;;;;;;;8.43;6.57;;;20.70;97.50;;;;;;5040685;28;20049;-76
2022/08/14 03:20:48;;;;;;;9.60;7.47;;;20.80;97.60;;;;;;5058660;28;20408;-76
2022/08/14 03:23:13;;;;;;;9.18;7.43;;;20.70;97.80;;;;;;5061211;28;20056;-75
2022/08/14 03:25:39;;;;;;;11.77;7.85;;;20.70;97.80;;;;;;5064488;28;20076;-76
2022/08/14 03:28:07;;;;;;;12.02;7.15;;;20.70;97.90;;;;;;5064668;28;20043;-76
2022/08/14 03:30:33;;;;;;;8.85;7.75;;;20.70;97.90;;;;;;5062325;28;20041;-77
2022/08/14 03:32:59;;;;;;;8.32;7.53;;;20.70;98.00;;;;;;5061981;28;20049;-75
2022/08/14 03:35:25;;;;;;;7.65;6.95;;;20.70;97.90;;;;;;5065759;28;20070;-77
2022/08/14 03:37:51;;;;;;;9.60;8.05;;;20.80;98.00;;;;;;5065685;28;20044;-76
2022/08/14 03:40:19;;;;;;;7.43;6.63;;;20.70;98.10;;;;;;5061304;28;20570;-73
2022/08/14 03:42:45;;;;;;;8.68;7.35;;;20.90;98.30;;;;;;5062274;28;20053;-76
2022/08/14 03:45:14;;;;;;;7.80;7.00;;;20.60;98.30;;;;;;5064258;28;20037;-75
2022/08/14 03:47:40;;;;;;;13.73;7.18;;;21.10;98.50;;;;;;5065152;28;20074;-74
2022/08/14 03:50:08;;;;;;;6.90;6.18;;;20.70;98.40;;;;;;5064012;28;20149;-75
2022/08/14 03:52:34;;;;;;;7.30;6.60;;;20.70;98.40;;;;;;5062017;28;20582;-75
2022/08/14 03:55:02;;;;;;;9.10;7.90;;;20.70;98.50;;;;;;5061744;28;20052;-73
2022/08/14 03:57:31;;;;;;;8.32;7.28;;;20.60;98.50;;;;;;5065446;28;20049;-72
2022/08/14 03:59:57;;;;;;;7.78;7.07;;;20.60;98.60;;;;;;5065228;28;20040;-72
2022/08/14 04:02:23;;;;;;;8.60;7.13;;;20.60;98.70;;;;;;5061225;28;20424;-73
2022/08/14 04:04:49;;;;;;;7.43;6.65;;;20.60;98.80;;;;;;5061558;28;20051;-72
2022/08/14 04:07:16;;;;;;;8.38;6.68;;;20.60;98.80;;;;;;5063595;28;20033;-75
2022/08/14 04:09:41;;;;;;;8.00;7.20;;;20.60;98.70;;;;;;5065050;28;20498;-75
2022/08/14 04:12:07;;;;;;;8.85;6.93;;;20.60;98.70;;;;;;5064014;28;20045;-76
2022/08/14 04:14:33;;;;;;;8.90;6.53;;;20.60;98.80;;;;;;5060737;28;20094;-76
2022/08/14 04:16:58;;;;;;;9.43;7.53;;;20.70;98.90;;;;;;5062027;28;20037;-75
2022/08/14 04:19:24;;;;;;;14.45;7.10;;;20.60;98.90;;;;;;5065036;28;20064;-76
2022/08/14 04:21:50;;;;;;;8.77;6.97;;;20.50;99.00;;;;;;5064201;28;20029;-75
2022/08/14 04:24:16;;;;;;;7.55;6.90;;;20.50;99.40;;;;;;5062310;28;20064;-76
2022/08/14 04:26:43;;;;;;;8.23;7.43;;;20.50;99.20;;;;;;5061589;28;20053;-75
2022/08/14 04:29:13;;;;;;;7.97;7.30;;;20.40;99.30;;;;;;5062136;28;20106;-72
2022/08/14 04:31:39;;;;;;;7.88;6.88;;;20.40;99.40;;;;;;5047066;28;20044;-76
2022/08/14 04:34:05;;;;;;;8.00;7.20;;;20.40;99.60;;;;;;5045927;28;20049;-76
2022/08/14 04:43:34;;;;;;;7.90;6.75;;;20.40;99.70;;;;;;5041979;28;20049;-74
2022/08/14 04:44:45;;;;;;;9.48;7.82;;;20.30;99.90;;;;;;5061353;28;19920;-75
2022/08/14 04:49:55;;;;;;;13.35;7.47;;;20.30;99.90;;;;;;5063649;28;20044;-74
2022/08/14 04:52:21;;;;;;;7.38;6.68;;;20.20;99.90;;;;;;5061718;28;20044;-72
2022/08/14 04:54:46;;;;;;;8.27;7.57;;;20.20;99.90;;;;;;5060685;28;20037;-76
2022/08/14 04:57:13;;;;;;;9.88;7.45;;;20.30;99.90;;;;;;5043627;28;20463;-76
2022/08/14 04:59:39;;;;;;;8.32;7.38;;;20.40;99.90;;;;;;5046322;28;20048;-76
2022/08/14 05:02:05;;;;;;;9.95;8.07;;;20.20;99.90;;;;;;5063782;28;20089;-77
2022/08/14 05:04:30;;;;;;;8.68;7.88;;;20.20;99.90;;;;;;5059932;28;20487;-77
2022/08/14 05:06:56;;;;;;;9.18;7.68;;;20.80;99.90;;;;;;5060754;28;20036;-72
2022/08/14 05:09:24;;;;;;;9.82;8.77;;;20.20;99.90;;;;;;5063098;28;20497;-72
2022/08/14 05:11:50;;;;;;;9.88;8.30;;;20.20;99.90;;;;;;5045401;28;20040;-72
2022/08/14 05:14:17;;;;;;;10.25;8.25;;;20.10;99.90;;;;;;5061722;28;20055;-72
2022/08/14 05:16:43;;;;;;;8.10;7.47;;;20.10;99.90;;;;;;5042885;28;20480;-71
2022/08/14 05:19:12;;;;;;;9.02;8.23;;;20.20;99.90;;;;;;5060555;28;20094;-72
2022/08/14 05:21:39;;;;;;;8.40;7.60;;;20.20;99.90;;;;;;5046023;28;20417;-71
2022/08/14 05:24:05;;;;;;;8.13;7.45;;;20.20;99.90;;;;;;5063337;28;20048;-72
2022/08/14 05:26:31;;;;;;;9.73;8.75;;;20.20;99.90;;;;;;5059663;28;20405;-77
2022/08/14 05:28:57;;;;;;;9.70;8.55;;;20.20;99.90;;;;;;5060082;28;20041;-75
2022/08/14 05:31:23;;;;;;;14.85;8.20;;;20.30;99.90;;;;;;5062809;28;20071;-76
2022/08/14 05:33:48;;;;;;;8.43;7.72;;;20.20;99.90;;;;;;5062576;28;20547;-76
2022/08/14 05:36:14;;;;;;;9.80;8.55;;;20.20;99.90;;;;;;5062371;28;20048;-71
2022/08/14 05:38:46;;;;;;;12.30;8.77;;;20.30;99.90;;;;;;5041425;28;20300;-72
2022/08/14 05:41:16;;;;;;;9.65;8.85;;;20.20;99.90;;;;;;5043126;28;20044;-71
2022/08/14 05:43:44;;;;;;;10.32;8.23;;;20.30;99.90;;;;;;5062774;28;20043;-72
2022/08/14 05:46:12;;;;;;;11.75;9.05;;;20.70;99.90;;;;;;5062445;28;20040;-71
2022/08/14 05:48:38;;;;;;;10.15;9.15;;;20.30;99.90;;;;;;5059521;28;20036;-70
2022/08/14 05:51:03;;;;;;;10.10;8.60;;;20.30;99.90;;;;;;5059832;28;20037;-70
2022/08/14 05:53:29;;;;;;;9.40;8.32;;;20.40;99.90;;;;;;5061796;28;20521;-71
2022/08/14 05:55:55;;;;;;;11.40;8.00;;;20.40;99.90;;;;;;5063174;28;20456;-71
2022/08/14 05:58:22;;;;;;;10.77;8.57;;;20.40;99.90;;;;;;5061075;28;20040;-71
2022/08/14 06:00:50;;;;;;;10.93;8.55;;;20.40;99.90;;;;;;5041338;28;20028;-71
2022/08/14 06:03:19;;;;;;;9.32;8.35;;;20.50;99.90;;;;;;5060399;28;20036;-71
2022/08/14 06:05:50;;;;;;;8.70;7.80;;;20.50;99.90;;;;;;5063055;28;20040;-71
2022/08/14 06:08:20;;;;;;;10.55;8.70;;;20.50;99.90;;;;;;5060994;28;20087;-75
2022/08/14 06:10:46;;;;;;;11.05;8.57;;;20.60;99.90;;;;;;5059479;28;20143;-71
2022/08/14 06:13:13;;;;;;;8.95;8.25;;;20.60;99.90;;;;;;5060459;28;20055;-75
2022/08/14 06:15:40;;;;;;;9.70;8.77;;;20.70;99.90;;;;;;5062089;28;20496;-76
2022/08/14 06:18:06;;;;;;;10.48;8.90;;;20.90;99.90;;;;;;5063127;28;20036;-76
2022/08/14 06:20:32;;;;;;;13.32;8.07;;;20.70;99.90;;;;;;5059673;28;20392;-76
2022/08/14 06:22:58;;;;;;;10.43;8.40;;;20.80;99.90;;;;;;5058768;28;20045;-74
2022/08/14 06:25:24;;;;;;;13.52;9.88;;;20.90;99.90;;;;;;5061351;28;20052;-75
2022/08/14 06:27:50;;;;;;;9.07;8.27;;;20.90;99.90;;;;;;5062267;28;20040;-76
2022/08/14 06:30:18;;;;;;;12.02;9.35;;;20.90;99.90;;;;;;5043780;28;20032;-76
2022/08/14 06:32:45;;;;;;;12.23;9.43;;;20.90;99.90;;;;;;5059149;28;20498;-75
2022/08/14 06:35:19;;;;;;;7.85;7.10;;;21.00;99.90;;;;;;5058653;28;20047;-74
2022/08/14 06:37:52;;;;;;;;;;;21.10;99.90;;;;;;5053069;28;20171;-75
2022/08/14 06:40:27;;;;;;;7.85;7.13;;;21.10;99.90;;;;;;5059971;28;19921;-76
2022/08/14 06:42:53;;;;;;;10.30;6.90;;;21.20;99.90;;;;;;5061776;28;20037;-76
2022/08/14 06:45:19;;;;;;;6.70;6.13;;;21.20;99.90;;;;;;5043678;28;20052;-75
2022/08/14 06:47:46;;;;;;;12.25;6.97;;;21.30;99.90;;;;;;5059337;28;20033;-75
2022/08/14 06:50:17;;;;;;;9.68;6.30;;;21.40;99.90;;;;;;5058586;28;20393;-76
2022/08/14 06:52:44;;;;;;;8.88;6.78;;;21.40;99.90;;;;;;5051555;28;20512;-76
2022/08/14 06:55:12;;;;;;;8.20;7.57;;;21.50;99.90;;;;;;5059206;28;20486;-73
2022/08/14 06:57:40;;;;;;;10.20;6.72;;;21.50;99.90;;;;;;5061758;28;20119;-71
2022/08/14 07:00:11;;;;;;;10.82;7.00;;;21.60;99.90;;;;;;5064413;28;20090;-73
2022/08/14 07:08:12;;;;;;;7.90;6.70;;;21.90;99.90;;;;;;5066500;28;20040;-72
2022/08/14 07:10:38;;;;;;;6.88;6.28;;;21.90;99.90;;;;;;5062300;28;20045;-73
2022/08/14 07:13:04;;;;;;;8.80;6.07;;;22.00;99.90;;;;;;5062603;28;20040;-74
2022/08/14 07:15:33;;;;;;;7.35;5.88;;;22.10;99.90;;;;;;5064841;28;20124;-75
2022/08/14 07:17:59;;;;;;;6.68;6.05;;;22.10;99.90;;;;;;5065370;28;20549;-75
2022/08/14 07:20:27;;;;;;;8.00;6.00;;;22.20;99.90;;;;;;5064952;28;20064;-76
2022/08/14 07:22:57;;;;;;;6.75;6.13;;;22.30;99.90;;;;;;5062677;28;20044;-75
2022/08/14 07:25:24;;;;;;;9.32;5.70;;;22.40;99.90;;;;;;5062855;28;20052;-72
2022/08/14 07:27:49;;;;;;;9.63;6.47;;;22.40;99.90;;;;;;5066142;28;20045;-71
2022/08/14 07:30:15;;;;;;;6.28;5.68;;;22.50;99.90;;;;;;5045929;28;20090;-71
2022/08/14 07:32:41;;;;;;;6.43;5.85;;;22.60;99.90;;;;;;5062106;28;20420;-71
2022/08/14 07:35:07;;;;;;;10.57;5.68;;;22.60;99.90;;;;;;5062402;28;20048;-73
2022/08/14 07:37:32;;;;;;;8.13;5.82;;;22.70;99.90;;;;;;5063879;28;20052;-71
2022/08/14 07:39:58;;;;;;;6.55;5.95;;;22.80;99.90;;;;;;5047958;28;20111;-71
2022/08/14 07:42:24;;;;;;;6.53;6.03;;;22.80;99.90;;;;;;5064598;28;20036;-70
2022/08/14 07:44:50;;;;;;;8.30;6.50;;;22.90;99.90;;;;;;5043669;28;20040;-71
2022/08/14 07:47:15;;;;;;;6.80;6.18;;;22.90;99.90;;;;;;5044426;28;20081;-75
2022/08/14 07:49:44;;;;;;;5.65;5.13;;;23.10;99.90;;;;;;5065077;28;20064;-76
2022/08/14 07:52:09;;;;;;;6.88;6.25;;;23.10;99.90;;;;;;5065065;28;20139;-75
2022/08/14 07:54:35;;;;;;;8.23;6.30;;;23.10;99.90;;;;;;5045069;28;20121;-71
2022/08/14 07:57:01;;;;;;;7.82;5.97;;;23.20;99.90;;;;;;5062056;28;20072;-71
2022/08/14 07:59:27;;;;;;;7.47;6.20;;;23.20;99.90;;;;;;5062297;28;20390;-71
2022/08/14 08:01:54;;;;;;;7.93;5.60;;;23.30;99.90;;;;;;5065233;28;20040;-71
2022/08/14 08:04:25;;;;;;;5.82;5.40;;;23.40;99.90;;;;;;5064813;28;20056;-70
2022/08/14 08:06:51;;;;;;;6.22;5.45;;;23.50;99.90;;;;;;5054343;28;20044;-71
2022/08/14 08:09:22;;;;;;;5.10;4.80;;;23.50;99.90;;;;;;5061788;28;20550;-70
2022/08/14 08:11:48;;;;;;;5.57;5.18;;;23.70;99.90;;;;;;5052345;28;20128;-71
2022/08/14 08:14:14;;;;;;;6.55;5.93;;;23.70;99.90;;;;;;5061548;28;20191;-71
2022/08/14 08:16:40;;;;;;;7.00;5.50;;;23.70;99.90;;;;;;5064186;28;20513;-74
2022/08/14 08:19:07;;;;;;;7.25;5.65;;;23.80;99.90;;;;;;5064217;28;20166;-76
2022/08/14 08:21:37;;;;;;;5.88;5.35;;;23.90;99.90;;;;;;5063911;28;20407;-76
2022/08/14 08:24:03;;;;;;;7.65;5.30;;;23.90;99.90;;;;;;5061268;28;20098;-76
2022/08/14 08:26:32;;;;;;;7.05;6.35;;;24.00;99.90;;;;;;5061483;28;20515;-75
2022/08/14 08:28:58;;;;;;;6.50;5.78;;;24.10;99.80;;;;;;5064909;28;20040;-74
2022/08/14 08:31:25;;;;;;;7.80;6.03;;;24.10;99.60;;;;;;5064577;28;20040;-75
2022/08/14 08:33:51;;;;;;;5.65;5.15;;;24.20;99.50;;;;;;5060216;28;20061;-71
2022/08/14 08:36:18;;;;;;;8.55;5.05;;;24.30;99.40;;;;;;5061675;28;20049;-74
2022/08/14 08:38:47;;;;;;;7.05;5.45;;;24.30;99.40;;;;;;5063833;28;20039;-75
2022/08/14 08:41:13;;;;;;;6.28;4.85;;;24.40;99.50;;;;;;5063977;28;20058;-74
2022/08/14 08:43:39;;;;;;;8.02;5.05;;;24.40;99.30;;;;;;5062224;28;20143;-75
2022/08/14 08:46:13;;;;;;;5.40;4.88;;;24.60;99.20;;;;;;5061258;28;20040;-76
2022/08/14 08:48:50;;;;;;;5.38;4.82;;;24.60;98.90;;;;;;5062167;28;20641;-74
2022/08/14 08:51:24;;;;;;;6.10;4.65;;;24.60;98.50;;;;;;5064479;28;20090;-75
2022/08/14 08:54:25;;;;;;;5.03;4.53;;;24.60;98.60;;;;;;5042290;28;20037;-76
2022/08/14 08:56:51;;;;;;;5.45;4.95;;;24.70;98.50;;;;;;4952330;29;20067;-75
2022/08/14 08:59:30;;;;;;;11.23;4.43;;;24.90;98.50;;;;;;5039205;28;20060;-72
2022/08/14 09:02:04;;;;;;;5.47;4.60;;;24.90;98.30;;;;;;5064106;28;20549;-74
2022/08/14 09:04:33;;;;;;;;;;;25.10;98.00;;;;;;5064123;28;20048;-75
2022/08/14 09:06:59;;;;;;;4.93;4.40;;;25.10;98.00;;;;;;5051407;28;19920;-75
2022/08/14 09:09:30;;;;;;;6.20;5.10;;;25.20;97.70;;;;;;5060514;28;20163;-76
2022/08/14 09:11:58;;;;;;;8.15;4.60;;;25.20;97.40;;;;;;5052706;28;20044;-74
2022/08/14 09:14:28;;;;;;;6.30;4.60;;;25.30;97.30;;;;;;5060319;28;20037;-75
2022/08/14 09:16:54;;;;;;;4.70;4.30;;;25.30;97.30;;;;;;5064046;28;20075;-76
2022/08/14 09:19:20;;;;;;;5.28;4.78;;;25.40;97.30;;;;;;5046074;28;20048;-76
2022/08/14 09:21:46;;;;;;;4.25;3.95;;;25.50;97.10;;;;;;5061441;28;20446;-76
2022/08/14 09:24:13;;;;;;;5.55;4.15;;;25.50;97.00;;;;;;5059397;28;20037;-75
2022/08/14 09:26:43;;;;;;;6.80;4.32;;;25.60;97.10;;;;;;5043708;28;20084;-75
2022/08/14 09:29:09;;;;;;;7.65;4.60;;;25.70;96.90;;;;;;5063089;28;20143;-75
2022/08/14 09:31:38;;;;;;;4.80;4.40;;;25.80;96.90;;;;;;5063135;28;20373;-74
2022/08/14 09:34:32;;;;;;;4.35;3.97;;;25.70;97.10;;;;;;5059797;28;20539;-76
2022/08/14 09:37:07;;;;;;;7.65;4.22;;;25.80;96.70;;;;;;5051730;28;20040;-76
2022/08/14 09:39:48;;;;;;;5.35;4.60;;;25.90;96.40;;;;;;5060248;28;20220;-77
2022/08/14 09:42:35;;;;;;;6.55;4.20;;;25.90;96.30;;;;;;5063648;28;20094;-76
2022/08/14 09:45:17;;;;;;;4.35;4.05;;;26.00;96.20;;;;;;5052368;28;20044;-76
2022/08/14 09:47:44;;;;;;;4.63;4.22;;;26.10;96.40;;;;;;5061431;28;20052;-76
2022/08/14 09:50:24;;;;;;;4.20;3.90;;;26.10;96.00;;;;;;5062749;28;20461;-76
2022/08/14 09:52:57;;;;;;;4.47;4.18;;;26.20;96.10;;;;;;5060885;28;20044;-76
2022/08/14 09:55:25;;;;;;;4.75;4.40;;;26.30;96.10;;;;;;5059978;28;20508;-74
2022/08/14 09:57:51;;;;;;;6.25;4.18;;;26.30;95.70;;;;;;5061078;28;20500;-72
2022/08/14 10:00:21;;;;;;;5.82;3.83;;;26.40;95.60;;;;;;5063178;28;20047;-73
2022/08/14 10:03:01;;;;;;;5.22;4.38;;;26.40;95.40;;;;;;5061086;28;20119;-72
2022/08/14 10:05:35;;;;;;;5.57;3.80;;;26.40;95.60;;;;;;5059086;28;20116;-73
2022/08/14 10:08:02;;;;;;;4.38;4.00;;;26.50;95.40;;;;;;5051348;28;20036;-72
2022/08/14 10:10:37;;;;;;;4.70;4.07;;;26.60;95.50;;;;;;5059415;28;20133;-72
2022/08/14 10:13:06;;;;;;;4.47;3.65;;;26.70;95.10;;;;;;5050644;28;20037;-72
2022/08/14 10:15:37;;;;;;;3.65;3.45;;;26.70;95.00;;;;;;5059523;28;20041;-72
2022/08/14 10:18:06;;;;;;;5.00;4.57;;;26.80;95.20;;;;;;5051278;28;20213;-75
2022/08/14 10:20:41;;;;;;;4.90;4.07;;;26.90;95.00;;;;;;5049605;28;20454;-72
2022/08/14 10:23:16;;;;;;;4.20;3.83;;;26.90;94.90;;;;;;5034068;28;20052;-73
2022/08/14 10:25:44;;;;;;;6.38;3.90;;;27.00;94.70;;;;;;5041462;28;20094;-73
2022/08/14 10:28:14;;;;;;;8.50;3.95;;;27.10;94.30;;;;;;5062871;28;20033;-71
2022/08/14 10:30:46;;;;;;;4.30;3.90;;;27.20;94.20;;;;;;5062578;28;20190;-76
2022/08/14 10:33:29;;;;;;;6.20;3.13;;;27.20;94.00;;;;;;5058467;28;20056;-74
2022/08/14 10:35:57;;;;;;;5.27;3.60;;;27.30;93.70;;;;;;5061384;28;20091;-75
2022/08/14 10:38:32;;;;;;;3.53;3.33;;;27.30;93.60;;;;;;5062804;28;20111;-76
2022/08/14 10:41:12;;;;;;;4.32;3.92;;;27.40;93.70;;;;;;5059487;28;20047;-77
2022/08/14 10:43:39;;;;;;;3.90;3.65;;;27.60;94.20;;;;;;5058978;28;20071;-75
2022/08/14 10:46:13;;;;;;;4.70;3.83;;;27.50;93.60;;;;;;5050916;28;20033;-76
2022/08/14 10:48:39;;;;;;;;;;;27.50;93.40;;;;;;5059697;28;20045;-75
2022/08/14 10:51:04;;;;;;;3.08;2.88;;;27.50;93.30;;;;;;5062811;28;19928;-76
2022/08/14 10:53:33;;;;;;;4.07;3.85;;;27.60;93.30;;;;;;5061871;28;20089;-77
2022/08/14 10:56:02;;;;;;;4.97;4.20;;;27.70;93.10;;;;;;5060048;28;20128;-75
2022/08/14 10:58:31;;;;;;;3.80;3.50;;;27.70;92.90;;;;;;5058962;28;20041;-77
2022/08/14 11:01:04;;;;;;;3.85;3.55;;;27.70;93.00;;;;;;5060382;28;20075;-76
2022/08/14 11:03:41;;;;;;;4.27;3.53;;;27.80;92.90;;;;;;5062470;28;20045;-73
2022/08/14 11:06:18;;;;;;;4.82;3.50;;;27.90;92.90;;;;;;5058935;28;20048;-72
2022/08/14 11:08:46;;;;;;;3.92;3.20;;;28.00;92.60;;;;;;5058754;28;20041;-74
2022/08/14 11:11:12;;;;;;;3.55;3.35;;;28.10;92.60;;;;;;5044603;28;20476;-72
2022/08/14 11:13:42;;;;;;;2.58;2.38;;;28.20;92.20;;;;;;5044387;28;20066;-72
2022/08/14 11:16:09;;;;;;;3.17;2.97;;;28.30;91.70;;;;;;5040381;28;20101;-73
2022/08/14 11:18:36;;;;;;;3.95;3.20;;;28.40;91.40;;;;;;5058923;28;20112;-72
2022/08/14 11:21:05;;;;;;;3.67;2.80;;;28.40;91.60;;;;;;5061150;28;20338;-72
2022/08/14 11:23:37;;;;;;;2.75;2.65;;;28.50;91.40;;;;;;5061308;28;20349;-72
2022/08/14 11:26:04;;;;;;;3.30;3.00;;;28.50;91.40;;;;;;5041741;28;20051;-72
2022/08/14 11:28:36;;;;;;;3.00;2.75;;;28.60;91.40;;;;;;5058291;28;20154;-73
2022/08/14 11:31:03;;;;;;;3.42;3.22;;;28.70;91.00;;;;;;5061113;28;20048;-76
2022/08/14 11:33:35;;;;;;;3.63;3.08;;;28.90;91.30;;;;;;5061800;28;20068;-76
2022/08/14 11:36:04;;;;;;;4.50;3.47;;;28.90;90.80;;;;;;5059653;28;20368;-76
2022/08/14 11:38:44;;;;;;;5.18;3.05;;;29.00;90.30;;;;;;5058538;28;20044;-75
2022/08/14 11:41:12;;;;;;;3.38;3.08;;;29.10;90.30;;;;;;5062076;28;20262;-76
2022/08/14 11:43:43;;;;;;;3.22;3.03;;;29.30;90.20;;;;;;5061140;28;20453;-75
2022/08/14 11:46:09;;;;;;;3.25;2.97;;;29.40;89.70;;;;;;5059531;28;20112;-75
2022/08/14 11:48:50;;;;;;;3.67;3.28;;;29.50;89.40;;;;;;5044216;28;20033;-71
2022/08/14 11:51:24;;;;;;;3.70;3.20;;;29.60;89.20;;;;;;5035784;28;20040;-71
2022/08/14 11:54:12;;;;;;;3.50;3.30;;;29.60;89.20;;;;;;5062133;28;20041;-72
2022/08/14 11:56:44;;;;;;;3.00;2.90;;;29.70;88.80;;;;;;5046850;28;20484;-71
2022/08/14 11:59:16;;;;;;;4.97;3.35;;;29.80;87.90;;;;;;5062757;28;20044;-75
2022/08/14 12:01:45;;;;;;;7.68;3.38;;;30.00;88.50;;;;;;5061898;28;20113;-71
2022/08/14 12:04:18;;;;;;;4.93;3.22;;;30.00;88.00;;;;;;5063887;28;20053;-71
2022/08/14 12:06:53;;;;;;;3.20;3.05;;;30.10;88.10;;;;;;5065286;28;20274;-72
2022/08/14 12:09:31;;;;;;;3.97;3.63;;;30.20;87.70;;;;;;5036197;28;20052;-71
2022/08/14 12:11:58;;;;;;;3.83;3.63;;;30.40;87.60;;;;;;5043933;28;20041;-70
2022/08/14 12:14:24;;;;;;;3.70;3.45;;;30.50;87.70;;;;;;5064990;28;20063;-71
2022/08/14 12:17:05;;;;;;;4.03;3.72;;;30.60;86.60;;;;;;5047360;28;20036;-71
2022/08/14 12:19:41;;;;;;;3.60;3.40;;;30.40;86.20;;;;;;5036813;28;20052;-70
2022/08/14 12:22:07;;;;;;;4.32;3.63;;;30.50;86.40;;;;;;5063225;28;20045;-75
2022/08/14 12:24:33;;;;;;;3.95;3.65;;;30.50;85.90;;;;;;5065182;28;20056;-75
2022/08/14 12:26:59;;;;;;;4.43;3.97;;;30.60;86.20;;;;;;5063724;28;20044;-75
2022/08/14 12:29:24;;;;;;;3.92;3.60;;;30.70;86.70;;;;;;5061609;28;20045;-75
2022/08/14 12:32:05;;;;;;;7.97;4.03;;;30.80;85.60;;;;;;5060969;28;20041;-75
2022/08/14 12:34:33;;;;;;;3.97;3.67;;;30.70;84.20;;;;;;5054913;28;20049;-76
2022/08/14 12:37:04;;;;;;;3.92;3.60;;;30.60;84.50;;;;;;5061848;28;20036;-76
2022/08/14 12:39:31;;;;;;;6.13;4.07;;;30.60;84.80;;;;;;5063816;28;20052;-75
2022/08/14 12:42:00;;;;;;;4.00;3.70;;;30.50;84.30;;;;;;5064615;28;20067;-75
2022/08/14 12:44:37;;;;;;;5.38;3.80;;;30.40;83.90;;;;;;5061173;28;20091;-76
2022/08/14 12:47:09;;;;;;;4.63;4.22;;;30.50;84.40;;;;;;5061627;28;20064;-72
2022/08/14 12:49:35;;;;;;;4.00;3.72;;;30.50;83.70;;;;;;5064522;28;20079;-75
2022/08/14 12:52:01;;;;;;;4.45;4.15;;;30.40;83.60;;;;;;5063449;28;20080;-76
2022/08/14 12:54:28;;;;;;;4.95;3.85;;;30.40;83.90;;;;;;5060647;28;20086;-75
2022/08/14 12:57:06;;;;;;;4.32;3.78;;;30.30;83.80;;;;;;5060817;28;20045;-76
2022/08/14 12:59:32;;;;;;;4.65;4.35;;;30.20;83.70;;;;;;5053818;28;20492;-74
2022/08/14 13:01:58;;;;;;;4.03;3.72;;;30.10;83.90;;;;;;5060279;28;20064;-75
2022/08/14 13:04:24;;;;;;;5.10;3.85;;;30.00;83.90;;;;;;5052765;28;20575;-76
2022/08/14 13:06:50;;;;;;;3.70;3.38;;;30.10;84.70;;;;;;5060691;28;20124;-72
2022/08/14 13:09:17;;;;;;;3.65;3.35;;;30.30;84.80;;;;;;5063100;28;20166;-75
2022/08/14 13:11:44;;;;;;;3.55;3.35;;;30.50;83.90;;;;;;5064231;28;20036;-75